Crystal Ace — V7YB2 — position and weather

sailwx.info

Track history (hours):
 
Tides and Currents Weather Stations Pressure Air Temp Water Temp Dewpoint Dewpoint Depression Visibility Wind Speed Wind Dir Waves Ship Positions

Crystal Ace

Last reported at 2018-Apr-25 02:30 UTC. Time now 2018-Apr-25 02:56 UTC.
Position N 51°26' E 002°59'.

Length 200 m; draft 8.4 m.

Type: Cargo ship. MMSI: 538004619.

Date/timePositionNaut miles runAvg speedWind from/ knotsBaromVisibWave heightAir tempDewpointWater temp
2018-Apr-25 02:30N 51°26' E 002°59'714.9
2018-Apr-25 02:00N 51°24' E 003°10'816.5
2018-Apr-25 01:31N 51°25' E 003°23'714.7
2018-Apr-25 01:01N 51°26' E 003°35'3 5.2
2018-Apr-25 00:30N 51°26' E 003°39'714.8
2018-Apr-25 00:00N 51°21' E 003°47'715.0
2018-Apr-24 23:30N 51°25' E 003°58'611.4
2018-Apr-24 23:00N 51°22' E 004°06'5 9.4
2018-Apr-24 22:31N 51°22' E 004°13'510.7
2018-Apr-24 22:00N 51°18' E 004°18'2 4.2
2018-Apr-24 21:30N 51°16' E 004°17'0 0.0
2018-Apr-24 21:00N 51°16' E 004°17'0 0.8
2018-Apr-24 20:31N 51°16' E 004°16'1 2.3
2018-Apr-24 19:58N 51°16' E 004°14'0 0.0
2018-Apr-24 19:28N 51°16' E 004°14'0 0.0
2018-Apr-24 18:58N 51°16' E 004°14'0 0.0
2018-Apr-24 18:28N 51°16' E 004°14'0 0.0
2018-Apr-24 17:58N 51°16' E 004°14'0 0.0
2018-Apr-24 17:28N 51°16' E 004°14'0 0.0
2018-Apr-24 16:58N 51°16' E 004°14'0 0.0
2018-Apr-24 16:28N 51°16' E 004°14'0 0.0
2018-Apr-24 15:58N 51°16' E 004°14'0 0.0
2018-Apr-24 15:28N 51°16' E 004°14'0 0.0
2018-Apr-24 14:58N 51°16' E 004°14'0 0.0
2018-Apr-24 14:28N 51°16' E 004°14'0 0.0
2018-Apr-24 13:58N 51°16' E 004°14'0 0.0
2018-Apr-24 13:28N 51°16' E 004°14'0 0.0
2018-Apr-24 12:58N 51°16' E 004°14'0 0.0
2018-Apr-24 12:28N 51°16' E 004°14'0 0.0
2018-Apr-24 11:58N 51°16' E 004°14'0 0.0
2018-Apr-24 11:28N 51°16' E 004°14'0 0.0
2018-Apr-24 10:58N 51°16' E 004°14'0 0.0
2018-Apr-24 10:28N 51°16' E 004°14'0 0.0
2018-Apr-24 09:58N 51°16' E 004°14'0 0.0
2018-Apr-24 09:28N 51°16' E 004°14'0 0.0
2018-Apr-24 08:58N 51°16' E 004°14'0 0.0
2018-Apr-24 08:28N 51°16' E 004°14'0 0.0
2018-Apr-24 07:58N 51°16' E 004°14'0 0.0
2018-Apr-24 07:28N 51°16' E 004°14'0 0.0
2018-Apr-24 06:58N 51°16' E 004°14'0 0.0
2018-Apr-24 06:28N 51°16' E 004°14'0 0.0
2018-Apr-24 05:58N 51°16' E 004°14'0 0.0
2018-Apr-24 05:28N 51°16' E 004°14'0 0.0
2018-Apr-24 04:55N 51°16' E 004°14'0 0.0
2018-Apr-24 04:28N 51°16' E 004°14'0 0.0
2018-Apr-24 03:58N 51°16' E 004°14'0 0.0
2018-Apr-24 03:28N 51°16' E 004°14'0 0.0
2018-Apr-24 02:58N 51°16' E 004°14'0 0.0
2018-Apr-24 02:28N 51°16' E 004°14'0 0.0
2018-Apr-24 01:58N 51°16' E 004°14'0 0.0
2018-Apr-24 01:28N 51°16' E 004°14'0 0.0
2018-Apr-24 00:58N 51°16' E 004°14'0 0.0
2018-Apr-24 00:28N 51°16' E 004°14'0 0.0
2018-Apr-23 23:59N 51°16' E 004°14'1 3.0
2018-Apr-23 23:30N 51°16' E 004°16'0 0.1
2018-Apr-23 23:01N 51°16' E 004°17'0 0.0
2018-Apr-23 22:30N 51°16' E 004°17'1 2.3
2018-Apr-23 22:00N 51°16' E 004°18'3 5.9
2018-Apr-23 21:30N 51°19' E 004°16'5 9.9
2018-Apr-23 21:00N 51°23' E 004°13'510.8
2018-Apr-23 20:30N 51°22' E 004°04'5 9.9
2018-Apr-23 20:01N 51°26' E 003°58'713.8
2018-Apr-23 19:30N 51°21' E 003°51'612.8
2018-Apr-23 19:00N 51°24' E 003°43'510.2
2018-Apr-23 18:30N 51°26' E 003°35'713.3
2018-Apr-23 18:01N 51°24' E 003°24'815.5
2018-Apr-23 17:30N 51°24' E 003°12'714.3
2018-Apr-23 17:00N 51°24' E 003°00'713.7
2018-Apr-23 16:28N 51°22' E 002°49'4 9.5
2018-Apr-23 16:00N 51°22' E 002°42'3 6.4
2018-Apr-23 15:30N 51°22' E 002°37'3 6.5
2018-Apr-23 15:00N 51°22' E 002°32'713.7
2018-Apr-23 14:30N 51°19' E 002°22'815.1
2018-Apr-23 14:00N 51°16' E 002°11'714.9
2018-Apr-23 13:30N 51°12' E 002°01'714.6
2018-Apr-23 13:01N 51°08' E 001°51'714.2
2018-Apr-23 12:30N 51°04' E 001°42'714.1
2018-Apr-23 12:00N 50°58' E 001°35'714.6
2018-Apr-23 11:30N 50°53' E 001°27'1015.0
2018-Apr-23 10:51N 50°44' E 001°21'1115.0
2018-Apr-23 10:07N 50°36' E 001°10'215.7
2018-Apr-23 09:58N 50°34' E 001°07'715.7
2018-Apr-23 09:30N 50°30' E 000°58'815.7
2018-Apr-23 08:59N 50°27' E 000°46'815.7
2018-Apr-23 08:28N 50°25' E 000°34'715.7
2018-Apr-23 08:00N 50°22' E 000°23'815.5
2018-Apr-23 07:31N 50°20' E 000°12'815.4
2018-Apr-23 07:01N 50°19' W 000°00'815.6
2018-Apr-23 06:30N 50°20' W 000°13'815.5
2018-Apr-23 06:01N 50°20' W 000°25'815.5
2018-Apr-23 05:30N 50°20' W 000°37'816.0
2018-Apr-23 05:00N 50°21' W 000°50'816.3
2018-Apr-23 04:30N 50°21' W 001°03'816.7
2018-Apr-23 04:01N 50°21' W 001°15'917.1
2018-Apr-23 03:30N 50°22' W 001°29'917.7
2018-Apr-23 03:00N 50°22' W 001°43'918.1
2018-Apr-23 02:29N 50°23' W 001°57'918.6
2018-Apr-23 02:00N 50°23' W 002°12'918.8
2018-Apr-23 01:30N 50°23' W 002°26'918.3
2018-Apr-23 01:00N 50°24' W 002°40'917.8
2018-Apr-23 00:30N 50°25' W 002°54'917.4
2018-Apr-23 00:01N 50°25' W 003°08'816.7
2018-Apr-22 23:30N 50°26' W 003°21'4 7.9
2018-Apr-22 23:00N 50°25' W 003°27'2 4.7
2018-Apr-22 22:30N 50°23' W 003°26'714.7
2018-Apr-22 22:00N 50°15' W 003°28'816.2
2018-Apr-22 21:30N 50°07' W 003°29'815.1
2018-Apr-22 21:00N 50°04' W 003°40'916.9
2018-Apr-22 20:28N 50°02' W 003°54'816.7
2018-Apr-22 20:00N 49°60' W 004°05'816.7
2018-Apr-22 19:30N 49°58' W 004°18'916.7
2018-Apr-22 19:00N 49°56' W 004°31'816.7
2018-Apr-22 18:30N 49°54' W 004°43'1016.9
2018-Apr-22 17:54N 49°51' W 004°59'816.5
2018-Apr-22 17:24N 49°49' W 005°11'  
Track history (hours):
 
Tides and Currents Weather Stations Pressure Air Temp Water Temp Dewpoint Dewpoint Depression Visibility Wind Speed Wind Dir Waves Ship Positions

Crystal Ace

Last reported at 2018-Apr-25 02:30 UTC. Time now 2018-Apr-25 02:56 UTC.
Position N 51°26' E 002°59'.

Length 200 m; draft 8.4 m.

Type: Cargo ship. MMSI: 538004619.

Date/timePositionNaut miles runAvg speedWind from/ knotsBaromVisibWave heightAir tempDewpointWater temp
2018-Apr-25 02:30N 51°26' E 002°59'714.9
2018-Apr-25 02:00N 51°24' E 003°10'816.5
2018-Apr-25 01:31N 51°25' E 003°23'714.7
2018-Apr-25 01:01N 51°26' E 003°35'3 5.2
2018-Apr-25 00:30N 51°26' E 003°39'714.8
2018-Apr-25 00:00N 51°21' E 003°47'715.0
2018-Apr-24 23:30N 51°25' E 003°58'611.4
2018-Apr-24 23:00N 51°22' E 004°06'5 9.4
2018-Apr-24 22:31N 51°22' E 004°13'510.7
2018-Apr-24 22:00N 51°18' E 004°18'2 4.2
2018-Apr-24 21:30N 51°16' E 004°17'0 0.0
2018-Apr-24 21:00N 51°16' E 004°17'0 0.8
2018-Apr-24 20:31N 51°16' E 004°16'1 2.3
2018-Apr-24 19:58N 51°16' E 004°14'0 0.0
2018-Apr-24 19:28N 51°16' E 004°14'0 0.0
2018-Apr-24 18:58N 51°16' E 004°14'0 0.0
2018-Apr-24 18:28N 51°16' E 004°14'0 0.0
2018-Apr-24 17:58N 51°16' E 004°14'0 0.0
2018-Apr-24 17:28N 51°16' E 004°14'0 0.0
2018-Apr-24 16:58N 51°16' E 004°14'0 0.0
2018-Apr-24 16:28N 51°16' E 004°14'0 0.0
2018-Apr-24 15:58N 51°16' E 004°14'0 0.0
2018-Apr-24 15:28N 51°16' E 004°14'0 0.0
2018-Apr-24 14:58N 51°16' E 004°14'0 0.0
2018-Apr-24 14:28N 51°16' E 004°14'0 0.0
2018-Apr-24 13:58N 51°16' E 004°14'0 0.0
2018-Apr-24 13:28N 51°16' E 004°14'0 0.0
2018-Apr-24 12:58N 51°16' E 004°14'0 0.0
2018-Apr-24 12:28N 51°16' E 004°14'0 0.0
2018-Apr-24 11:58N 51°16' E 004°14'0 0.0
2018-Apr-24 11:28N 51°16' E 004°14'0 0.0
2018-Apr-24 10:58N 51°16' E 004°14'0 0.0
2018-Apr-24 10:28N 51°16' E 004°14'0 0.0
2018-Apr-24 09:58N 51°16' E 004°14'0 0.0
2018-Apr-24 09:28N 51°16' E 004°14'0 0.0
2018-Apr-24 08:58N 51°16' E 004°14'0 0.0
2018-Apr-24 08:28N 51°16' E 004°14'0 0.0
2018-Apr-24 07:58N 51°16' E 004°14'0 0.0
2018-Apr-24 07:28N 51°16' E 004°14'0 0.0
2018-Apr-24 06:58N 51°16' E 004°14'0 0.0
2018-Apr-24 06:28N 51°16' E 004°14'0 0.0
2018-Apr-24 05:58N 51°16' E 004°14'0 0.0
2018-Apr-24 05:28N 51°16' E 004°14'0 0.0
2018-Apr-24 04:55N 51°16' E 004°14'0 0.0
2018-Apr-24 04:28N 51°16' E 004°14'0 0.0
2018-Apr-24 03:58N 51°16' E 004°14'0 0.0
2018-Apr-24 03:28N 51°16' E 004°14'0 0.0
2018-Apr-24 02:58N 51°16' E 004°14'0 0.0
2018-Apr-24 02:28N 51°16' E 004°14'0 0.0
2018-Apr-24 01:58N 51°16' E 004°14'0 0.0
2018-Apr-24 01:28N 51°16' E 004°14'0 0.0
2018-Apr-24 00:58N 51°16' E 004°14'0 0.0
2018-Apr-24 00:28N 51°16' E 004°14'0 0.0
2018-Apr-23 23:59N 51°16' E 004°14'1 3.0
2018-Apr-23 23:30N 51°16' E 004°16'0 0.1
2018-Apr-23 23:01N 51°16' E 004°17'0 0.0
2018-Apr-23 22:30N 51°16' E 004°17'1 2.3
2018-Apr-23 22:00N 51°16' E 004°18'3 5.9
2018-Apr-23 21:30N 51°19' E 004°16'5 9.9
2018-Apr-23 21:00N 51°23' E 004°13'510.8
2018-Apr-23 20:30N 51°22' E 004°04'5 9.9
2018-Apr-23 20:01N 51°26' E 003°58'713.8
2018-Apr-23 19:30N 51°21' E 003°51'612.8
2018-Apr-23 19:00N 51°24' E 003°43'510.2
2018-Apr-23 18:30N 51°26' E 003°35'713.3
2018-Apr-23 18:01N 51°24' E 003°24'815.5
2018-Apr-23 17:30N 51°24' E 003°12'714.3
2018-Apr-23 17:00N 51°24' E 003°00'713.7
2018-Apr-23 16:28N 51°22' E 002°49'4 9.5
2018-Apr-23 16:00N 51°22' E 002°42'3 6.4
2018-Apr-23 15:30N 51°22' E 002°37'3 6.5
2018-Apr-23 15:00N 51°22' E 002°32'713.7
2018-Apr-23 14:30N 51°19' E 002°22'815.1
2018-Apr-23 14:00N 51°16' E 002°11'714.9
2018-Apr-23 13:30N 51°12' E 002°01'714.6
2018-Apr-23 13:01N 51°08' E 001°51'714.2
2018-Apr-23 12:30N 51°04' E 001°42'714.1
2018-Apr-23 12:00N 50°58' E 001°35'714.6
2018-Apr-23 11:30N 50°53' E 001°27'1015.0
2018-Apr-23 10:51N 50°44' E 001°21'1115.0
2018-Apr-23 10:07N 50°36' E 001°10'215.7
2018-Apr-23 09:58N 50°34' E 001°07'715.7
2018-Apr-23 09:30N 50°30' E 000°58'815.7
2018-Apr-23 08:59N 50°27' E 000°46'815.7
2018-Apr-23 08:28N 50°25' E 000°34'715.7
2018-Apr-23 08:00N 50°22' E 000°23'815.5
2018-Apr-23 07:31N 50°20' E 000°12'815.4
2018-Apr-23 07:01N 50°19' W 000°00'815.6
2018-Apr-23 06:30N 50°20' W 000°13'815.5
2018-Apr-23 06:01N 50°20' W 000°25'815.5
2018-Apr-23 05:30N 50°20' W 000°37'816.0
2018-Apr-23 05:00N 50°21' W 000°50'816.3
2018-Apr-23 04:30N 50°21' W 001°03'816.7
2018-Apr-23 04:01N 50°21' W 001°15'917.1
2018-Apr-23 03:30N 50°22' W 001°29'917.7
2018-Apr-23 03:00N 50°22' W 001°43'918.1
2018-Apr-23 02:29N 50°23' W 001°57'918.6
2018-Apr-23 02:00N 50°23' W 002°12'918.8
2018-Apr-23 01:30N 50°23' W 002°26'918.3
2018-Apr-23 01:00N 50°24' W 002°40'917.8
2018-Apr-23 00:30N 50°25' W 002°54'917.4
2018-Apr-23 00:01N 50°25' W 003°08'816.7
2018-Apr-22 23:30N 50°26' W 003°21'4 7.9
2018-Apr-22 23:00N 50°25' W 003°27'2 4.7
2018-Apr-22 22:30N 50°23' W 003°26'714.7
2018-Apr-22 22:00N 50°15' W 003°28'816.2
2018-Apr-22 21:30N 50°07' W 003°29'815.1
2018-Apr-22 21:00N 50°04' W 003°40'916.9
2018-Apr-22 20:28N 50°02' W 003°54'816.7
2018-Apr-22 20:00N 49°60' W 004°05'816.7
2018-Apr-22 19:30N 49°58' W 004°18'916.7
2018-Apr-22 19:00N 49°56' W 004°31'816.7
2018-Apr-22 18:30N 49°54' W 004°43'1016.9
2018-Apr-22 17:54N 49°51' W 004°59'816.5
2018-Apr-22 17:24N 49°49' W 005°11'  

Dump ship's entire track history